Latest Coastal Weather Observations for Laverton

IDV60701

Issued at 10:21 am EDT Saturday 20 December 2014 (issued every 10 minutes, with the page automatically refreshed every 10 minutes)

About coastal observations | Map of coastal stations | Coastal observations for VIC | Marine services | Other Formats
Station Details ID: 087031 Name: LAVERTON RAAF Lat: -37.86 Lon: 144.76 Height: 20.1 m
Data from the previous 72 hours. | See also: Recent months at Laverton
Date/Time
EDT
Temp

°C
Wind Pressure Rain
since 9am
mm
Weather Cloud Vis
km
Sea
Height
m
Swell
Dir
 
Speed
knots
Gust
knots
hPa Trend Height
m
Period
s
Dir
20/10:00am 17.3 SSW 7 13 1019.6 - 0.0 - Cloudy 10 - - - -
20/09:30am 17.2 SW 7 10 1019.5 - 0.0 - Partly cloudy 10 - - - -
20/09:00am 16.8 SSW 8 12 1019.3 - 0.2 - - 10 - - - -
20/08:30am 15.6 WSW 7 10 1019.1 - 0.2 - - 10 - - - -
20/08:00am 14.2 W 6 8 1018.8 - 0.2 - - 10 - - - -
20/07:30am 12.4 WNW 5 6 1018.5 - 0.2 - - 10 - - - -
20/07:00am 10.3 NW 6 7 1018.3 - 0.2 - - 10 - - - -
20/06:30am 8.6 NW 5 6 1018.1 - 0.2 - - 10 - - - -
20/06:00am 8.2 NW 6 6 1018.0 - 0.2 - - 10 - - - -
20/05:30am 8.1 NW 6 7 1018.0 - 0.2 - - 10 - - - -
20/05:00am 8.5 NW 6 6 1017.9 - 0.2 - - 10 - - - -
20/04:30am 8.8 NW 6 6 1017.9 - 0.2 - - 10 - - - -
20/04:00am 8.9 NW 6 6 1017.9 - 0.2 - - 10 - - - -
20/03:30am 9.3 NW 6 6 1018.0 - 0.2 - - 10 - - - -
20/03:00am 9.7 WNW 5 6 1018.1 - 0.2 - - 10 - - - -
20/02:30am 10.3 WNW 5 6 1018.4 - 0.2 - - 10 - - - -
20/02:00am 11.0 WNW 5 7 1018.6 - 0.2 - - 10 - - - -
20/01:30am 12.3 W 5 7 1018.9 - 0.2 - - 10 - - - -
20/01:00am 13.4 W 6 9 1019.1 - 0.2 - - 10 - - - -
20/12:30am 14.0 WSW 6 8 1019.3 - 0.2 - Partly cloudy 10 - - - -
20/12:00am 14.3 SSW 5 7 1019.7 - 0.2 - Mostly clear 25 - - - -
 
Date/Time
EDT
Temp

°C
Wind Pressure Rain
since 9am
mm
Weather Cloud Vis
km
Sea
Height
m
Swell
Dir
 
Speed
knots
Gust
knots
hPa Trend Height
m
Period
s
Dir
19/11:30pm 14.2 S 5 8 1019.8 - 0.2 - Partly cloudy 10 - - - -
19/11:00pm 14.4 S 7 9 1020.0 - 0.2 - Partly cloudy 10 - - - -
19/10:30pm 14.7 SSW 7 9 1020.0 - 0.2 - - 10 - - - -
19/10:00pm 14.8 S 7 10 1019.8 - 0.2 - - 10 - - - -
19/09:30pm 15.2 SSE 7 10 1019.7 - 0.2 - - 10 - - - -
19/09:00pm 15.2 SSE 9 12 1019.7 - 0.2 - - 10 - - - -
19/08:30pm 15.5 SSE 8 11 1019.6 - 0.2 - - 10 - - - -
19/08:00pm 15.9 S 9 13 1019.4 - 0.2 - - 10 - - - -
19/07:30pm 16.4 S 11 15 1019.2 - 0.2 - - 10 - - - -
19/07:00pm 16.8 S 12 19 1018.7 - 0.2 - - 10 - - - -
19/06:30pm 17.2 SSE 13 18 1018.4 - 0.2 - - 10 - - - -
19/06:00pm 17.3 SSE 12 17 1018.0 - 0.2 - - 10 - - - -
19/05:30pm 17.8 SSE 12 17 1017.9 - 0.2 - - 10 - - - -
19/05:00pm 18.0 SSE 12 17 1017.8 - 0.2 - - 10 - - - -
19/04:30pm 17.7 SE 12 17 1017.8 - 0.2 - - 10 - - - -
19/04:00pm 18.6 SSE 12 19 1017.6 - 0.2 - Partly cloudy 10 - - - -
19/03:30pm 18.2 SE 11 17 1017.6 - 0.2 - Partly cloudy 10 - - - -
19/03:00pm 18.6 SE 11 16 1017.5 - 0.2 - Mostly cloudy 10 - - - -
19/02:30pm 17.5 SSE 11 17 1017.6 - 0.2 - Partly cloudy 10 - - - -
19/02:00pm 17.8 SSE 11 17 1017.6 - 0.2 - Partly cloudy 10 - - - -
19/01:30pm 18.7 S 9 15 1017.6 - 0.2 - Partly cloudy 10 - - - -
19/01:00pm 18.6 SSW 10 15 1017.9 - 0.2 - Cloudy 10 - - - -
19/12:30pm 17.2 SW 11 16 1017.9 - 0.2 - Partly cloudy 10 - - - -
19/12:00pm 17.5 SSW 12 20 1017.6 - 0.2 - Partly cloudy 10 - - - -
19/11:30am 17.9 SSW 13 19 1017.6 - 0.2 - Partly cloudy 10 - - - -
19/11:00am 16.9 SSW 12 17 1017.5 - 0.2 - Partly cloudy 10 - - - -
19/10:30am 17.2 SSW 13 21 1017.5 - 0.2 - Partly cloudy 10 - - - -
19/10:00am 16.5 SSW 12 18 1017.1 - 0.0 - Partly cloudy 10 - - - -
19/09:30am 16.0 SW 12 17 1017.0 - 0.0 - Partly cloudy 10 - - - -
19/09:00am 15.4 SW 11 17 1016.9 - 3.6 - - 10 - - - -
19/08:30am 14.5 WSW 11 15 1016.5 - 3.6 - Partly cloudy 10 - - - -
19/08:00am 13.7 WSW 11 15 1016.3 - 3.6 - Partly cloudy 10 - - - -
19/07:30am 12.5 W 10 13 1015.9 - 3.6 - - 10 - - - -
19/07:00am 11.0 W 9 13 1015.7 - 3.6 - - 10 - - - -
19/06:30am 10.6 W 8 12 1015.3 - 3.6 - - 10 - - - -
19/06:00am 10.2 W 7 9 1015.1 - 3.6 - - 10 - - - -
19/05:30am 10.1 W 9 11 1014.8 - 3.6 - - 10 - - - -
19/05:00am 9.9 W 7 9 1014.5 - 3.6 - - 10 - - - -
19/04:30am 10.5 W 7 10 1014.1 - 3.6 - - 10 - - - -
19/04:00am 10.6 W 8 11 1013.8 - 3.6 - - 10 - - - -
19/03:30am 10.5 W 6 9 1013.7 - 3.6 - - 10 - - - -
19/03:00am 10.9 W 7 10 1013.7 - 3.6 - - 10 - - - -
19/02:30am 10.9 W 8 10 1013.6 - 3.6 - - 10 - - - -
19/02:00am 11.3 W 8 10 1013.6 - 3.6 - - 10 - - - -
19/01:30am 11.5 W 7 9 1013.6 - 3.6 - - 10 - - - -
19/01:00am 11.6 W 7 9 1013.6 - 3.6 - - 10 - - - -
19/12:30am 12.0 W 7 10 1013.6 - 3.6 - - 10 - - - -
19/12:00am 12.9 WSW 7 9 1013.5 - 3.6 - - 10 - - - -
 
Date/Time
EDT
Temp

°C
Wind Pressure Rain
since 9am
mm
Weather Cloud Vis
km
Sea
Height
m
Swell
Dir
 
Speed
knots
Gust
knots
hPa Trend Height
m
Period
s
Dir
18/11:30pm 13.4 WSW 9 12 1013.5 - 3.6 - Partly cloudy 10 - - - -
18/11:00pm 13.9 WSW 9 12 1013.3 - 3.6 - - 10 - - - -
18/10:30pm 14.4 WSW 10 14 1013.2 - 3.6 - Partly cloudy 10 - - - -
18/10:00pm 14.8 SW 10 13 1012.9 - 3.6 - Partly cloudy 10 - - - -
18/09:30pm 15.2 SW 7 9 1012.4 - 3.6 - Partly cloudy 10 - - - -
18/09:00pm 15.4 SW 4 5 1012.0 - 3.6 Recent precip. Mostly cloudy 10 - - - -
18/08:30pm 15.3 SW 6 8 1011.6 - 3.6 - Partly cloudy 10 - - - -
18/08:00pm 15.7 W 5 8 1011.1 - 3.2 - Partly cloudy 10 - - - -
18/07:30pm 16.1 W 6 9 1010.8 - 3.2 - Partly cloudy 10 - - - -
18/07:00pm 15.3 WSW 7 11 1010.2 - 3.2 - Partly cloudy 10 - - - -
18/06:52pm 15.1 SW 8 13 1010.1 - 3.2 - Partly cloudy 10 - - - -
18/06:30pm 15.2 WSW 11 16 1009.9 - 2.6 - Partly cloudy 4 - - - -
18/06:26pm 15.6 WSW 11 16 1009.8 - 2.2 - Partly cloudy 7 - - - -
18/06:00pm 17.1 W 8 11 1009.3 - 1.4 Recent precip. Mostly cloudy 10 - - - -
18/05:30pm 15.7 WSW 8 12 1008.8 - 1.4 - Partly cloudy 10 - - - -
18/05:00pm 14.7 WSW 14 21 1009.1 - 0.6 - Partly cloudy 10 - - - -
18/04:41pm 15.0 WSW 15 27 1008.6 - 0.6 - Partly cloudy 10 - - - -
18/04:33pm 14.8 WSW 15 19 1008.5 - 0.6 - Partly cloudy 10 - - - -
18/04:30pm 14.8 WSW 14 19 1008.4 - 0.6 - Partly cloudy 10 - - - -
18/04:15pm 14.2 WSW 21 33 1008.2 - 0.4 - Partly cloudy 7 - - - -
18/04:00pm 14.7 WSW 21 32 1007.8 - 0.0 - Partly cloudy 8 - - - -
18/03:30pm 16.0 WSW 27 38 1006.9 - 0.0 - Partly cloudy 10 - - - -
18/03:08pm 18.5 WSW 18 40 1006.2 - 0.0 - Cloudy 10 - - - -
18/03:07pm 19.9 WSW 16 40 1006.1 - 0.0 - Cloudy 10 - - - -
18/03:00pm 22.9 WSW 12 17 1005.4 - 0.0 - Cloudy 10 - - - -
18/02:30pm 23.0 W 9 15 1005.1 - 0.0 - Partly cloudy 10 - - - -
18/02:00pm 23.7 WNW 13 19 1005.2 - 0.0 - Partly cloudy 10 - - - -
18/01:30pm 23.6 WNW 14 20 1005.3 - 0.0 - - 10 - - - -
18/01:00pm 23.5 W 14 20 1005.6 - 0.0 - Partly cloudy 10 - - - -
18/12:30pm 22.3 W 17 27 1005.9 - 0.0 - Partly cloudy 10 - - - -
18/12:06pm 22.8 WSW 15 25 1005.6 - 0.0 - Partly cloudy 10 - - - -
18/12:00pm 23.1 WSW 13 20 1005.6 - 0.0 - Partly cloudy 10 - - - -
18/11:30am 22.7 W 17 25 1005.7 - 0.0 - - 10 - - - -
18/11:00am 22.1 W 15 25 1005.5 - 0.0 - - 10 - - - -
18/10:57am 22.5 W 16 25 1005.4 - 0.0 - - 10 - - - -
18/10:30am 22.0 W 13 18 1005.6 - 0.0 - Partly cloudy 10 - - - -
18/10:00am 22.8 WNW 14 19 1005.7 - 0.0 - - 10 - - - -
18/09:34am 21.7 WNW 15 25 1005.5 - 0.0 - - 10 - - - -
18/09:30am 21.7 WNW 15 19 1005.5 - 0.0 - - 10 - - - -
18/09:00am 20.3 WNW 11 15 1005.7 - 0.0 - - 10 - - - -
18/08:30am 17.3 NW 7 10 1005.7 - 0.0 - - 10 - - - -
18/08:00am 15.2 WNW 6 7 1005.9 - 0.0 - - 10 - - - -
18/07:30am 13.4 NW 6 8 1005.7 - 0.0 - - 10 - - - -
18/07:00am 11.8 N 5 6 1005.6 - 0.0 - - 10 - - - -
18/06:30am 9.7 NNW 5 7 1005.5 - 0.0 - - 10 - - - -
18/06:00am 9.3 NNW 6 7 1005.7 - 0.0 - Mostly cloudy 10 - - - -
18/05:30am 9.2 NNW 5 7 1005.4 - 0.0 - - 10 - - - -
18/05:00am 9.1 NW 6 7 1005.3 - 0.0 - - 10 - - - -
18/04:30am 9.3 NW 5 6 1005.2 - 0.0 - - 10 - - - -
18/04:00am 9.2 WNW 7 9 1005.4 - 0.0 - - 10 - - - -
18/03:30am 9.5 NW 6 7 1005.2 - 0.0 - - 10 - - - -
18/03:00am 9.4 WNW 6 7 1005.5 - 0.0 - - 10 - - - -
18/02:30am 9.7 WNW 5 6 1005.8 - 0.0 - - 10 - - - -
18/02:00am 10.4 NW 6 7 1006.0 - 0.0 - - 10 - - - -
18/01:30am 13.4 SE 3 5 1006.1 - 0.0 - - 10 - - - -
18/01:00am 14.3 SE 4 7 1006.6 - 0.0 - - 10 - - - -
18/12:30am 14.8 SE 7 11 1006.9 - 0.0 - - 10 - - - -
18/12:00am 14.6 ESE 6 8 1007.3 - 0.0 - - 10 - - - -
 
Date/Time
EDT
Temp

°C
Wind Pressure Rain
since 9am
mm
Weather Cloud Vis
km
Sea
Height
m
Swell
Dir
 
Speed
knots
Gust
knots
hPa Trend Height
m
Period
s
Dir
17/11:30pm 15.0 ESE 8 12 1007.5 - 0.0 - - 10 - - - -
17/11:00pm 14.9 SE 6 9 1008.1 - 0.0 - - 10 - - - -
17/10:30pm 15.2 ESE 7 12 1008.2 - 0.0 - - 10 - - - -
17/10:00pm 15.5 SE 8 12 1008.2 - 0.0 - - 10 - - - -
17/09:30pm 15.7 SE 8 12 1008.3 - 0.0 - - 10 - - - -
17/09:00pm 16.1 SSE 10 14 1008.1 - 0.0 - - 10 - - - -
17/08:30pm 16.6 SSE 11 15 1008.0 - 0.0 - - 10 - - - -
17/08:00pm 17.2 SSE 13 18 1008.0 - 0.0 - - 10 - - - -
17/07:30pm 17.6 SSE 12 20 1007.8 - 0.0 - - 10 - - - -
17/07:00pm 17.9 SSE 13 19 1007.5 - 0.0 - - 10 - - - -
17/06:30pm 18.5 SSE 13 20 1007.3 - 0.0 - - 10 - - - -
17/06:00pm 18.8 SSE 14 18 1007.2 - 0.0 - - 10 - - - -
17/05:30pm 19.3 SSE 15 20 1007.1 - 0.0 - - 10 - - - -
17/05:00pm 19.6 SSE 13 17 1007.3 - 0.0 - - 10 - - - -
17/04:30pm 20.0 SE 11 15 1007.5 - 0.0 - - 10 - - - -
17/04:00pm 19.4 SSE 12 17 1007.8 - 0.0 - Partly cloudy 10 - - - -
17/03:30pm 19.2 ESE 10 14 1008.0 - 0.0 - - 10 - - - -
17/03:00pm 18.9 ESE 11 17 1008.1 - 0.0 - Partly cloudy 10 - - - -
17/02:30pm 18.4 ESE 11 18 1008.3 - 0.0 - Partly cloudy 10 - - - -
17/02:00pm 18.6 ESE 11 16 1008.7 - 0.0 - Partly cloudy 10 - - - -
17/01:30pm 18.6 ESE 9 16 1008.9 - 0.0 - Partly cloudy 10 - - - -
17/01:00pm 18.2 SE 8 13 1009.1 - 0.0 - Partly cloudy 10 - - - -
17/12:30pm 18.2 SW 5 13 1009.2 - 0.0 - Partly cloudy 10 - - - -
17/12:00pm 18.4 S 9 13 1009.3 - 0.0 - Partly cloudy 10 - - - -
17/11:30am 18.4 SSW 9 15 1009.2 - 0.0 - Partly cloudy 10 - - - -
17/11:00am 17.7 SW 9 17 1009.2 - 0.0 - Partly cloudy 10 - - - -
17/10:30am 17.8 SSW 9 12 1009.1 - 0.0 - Partly cloudy 10 - - - -

Other Formats:

Comma delimited format used in spreadsheet applications
http://www.bom.gov.au/fwo/IDV60701/IDV60701.94865.axf

JavaScript Object Notation format (JSON) in row-major order
http://www.bom.gov.au/fwo/IDV60701/IDV60701.94865.json